Time;durP1;ratioP1;P1;durP2;ratioP2;P2;SDS_P1;SDS_P2;PMS_P1;PMS_P2;Temp;Humidity;BMP_temperature;BMP_pressure;BME280_temperature;BME280_humidity;BME280_pressure;Samples;Min_cycle;Max_cycle;Signal;HPM_P1;HPM_P2
2021/01/13 00:00:27;;;;;;;24.30;11.02;;;-1.40;99.90;;;;;;4996099;28;20061;-81
2021/01/13 00:02:53;;;;;;;23.70;12.18;;;-1.40;99.90;;;;;;5011537;28;20045;-81
2021/01/13 00:05:20;;;;;;;23.95;12.15;;;-1.40;99.90;;;;;;5008508;28;20049;-81
2021/01/13 00:07:49;;;;;;;18.65;11.38;;;-1.40;99.90;;;;;;4997408;28;20484;-80
2021/01/13 00:10:17;;;;;;;24.92;12.30;;;-1.50;99.90;;;;;;4997917;28;20037;-81
2021/01/13 00:12:43;;;;;;;26.15;12.57;;;-1.50;99.90;;;;;;5013559;28;20030;-81
2021/01/13 00:15:10;;;;;;;21.88;11.43;;;-1.60;99.90;;;;;;5000281;28;20033;-81
2021/01/13 00:17:37;;;;;;;24.10;11.65;;;-1.70;99.90;;;;;;4996086;28;20038;-80
2021/01/13 00:20:07;;;;;;;25.38;11.65;;;-1.70;99.90;;;;;;5009329;28;20037;-81
2021/01/13 00:22:33;;;;;;;16.98;9.40;;;-1.70;99.90;;;;;;4999258;28;20038;-81
2021/01/13 00:25:00;;;;;;;21.25;11.60;;;-1.60;99.90;;;;;;4981453;28;20047;-82
2021/01/13 00:27:26;;;;;;;24.90;12.15;;;-1.60;99.90;;;;;;4977565;28;20046;-82
2021/01/13 00:29:53;;;;;;;25.55;13.07;;;-1.50;99.90;;;;;;4961880;28;20039;-82
2021/01/13 00:32:20;;;;;;;22.20;11.60;;;-1.60;99.90;;;;;;4944717;28;20047;-82
2021/01/13 00:34:46;;;;;;;22.50;11.80;;;-1.70;99.90;;;;;;4979392;28;20062;-82
2021/01/13 00:37:13;;;;;;;21.02;10.05;;;-1.70;99.90;;;;;;4960561;28;20382;-82
2021/01/13 00:39:40;;;;;;;16.05;8.98;;;-1.80;99.90;;;;;;4974809;28;20043;-82
2021/01/13 00:42:06;;;;;;;19.13;9.80;;;-1.90;99.90;;;;;;4973842;28;20041;-82
2021/01/13 00:44:33;;;;;;;24.75;10.63;;;-1.90;99.90;;;;;;4961512;28;20043;-82
2021/01/13 00:46:59;;;;;;;21.25;10.55;;;-1.90;99.90;;;;;;4960393;28;20465;-82
2021/01/13 00:49:25;;;;;;;16.25;9.65;;;-1.90;99.90;;;;;;4975007;28;20039;-82
2021/01/13 00:51:51;;;;;;;19.60;11.27;;;-2.00;99.90;;;;;;4960154;28;20042;-82
2021/01/13 00:54:18;;;;;;;24.88;10.85;;;-2.00;99.90;;;;;;4960599;28;20038;-81
2021/01/13 00:56:47;;;;;;;22.10;11.50;;;-2.00;99.90;;;;;;4960590;28;20042;-81
2021/01/13 00:59:14;;;;;;;17.35;10.18;;;-2.00;99.90;;;;;;4975359;28;20051;-82
2021/01/13 01:01:43;;;;;;;17.85;9.65;;;-2.10;99.90;;;;;;4947026;29;20043;-82
2021/01/13 01:04:11;;;;;;;20.98;10.05;;;-2.00;99.90;;;;;;4966942;28;20402;-82
2021/01/13 01:06:37;;;;;;;18.92;9.90;;;-2.10;99.90;;;;;;4958948;28;20046;-81
2021/01/13 01:09:05;;;;;;;25.13;10.43;;;-2.10;99.90;;;;;;4965215;28;20023;-80
2021/01/13 01:11:35;;;;;;;20.30;9.40;;;-2.20;99.90;;;;;;4976029;28;20039;-81
2021/01/13 01:14:02;;;;;;;18.88;10.63;;;-2.10;99.90;;;;;;4972451;28;20039;-80
2021/01/13 01:16:30;;;;;;;19.65;9.18;;;-2.20;99.90;;;;;;4965948;28;20175;-81
2021/01/13 01:18:57;;;;;;;16.90;8.57;;;-2.20;99.90;;;;;;4976040;28;20031;-81
2021/01/13 01:21:23;;;;;;;17.65;9.13;;;-2.30;99.90;;;;;;4962193;28;20048;-81
2021/01/13 01:23:50;;;;;;;19.80;9.85;;;-2.30;99.90;;;;;;4978416;28;20460;-82
2021/01/13 01:26:16;;;;;;;15.57;8.25;;;-2.20;99.90;;;;;;4965180;28;20051;-80
2021/01/13 01:28:42;;;;;;;18.00;8.90;;;-2.30;99.90;;;;;;5007775;28;20467;-81
2021/01/13 01:31:08;;;;;;;17.88;8.43;;;-2.40;99.90;;;;;;5016621;28;20046;-81
2021/01/13 01:33:35;;;;;;;14.85;7.75;;;-2.40;99.90;;;;;;5007414;28;20464;-82
2021/01/13 01:36:01;;;;;;;18.85;8.75;;;-2.30;99.90;;;;;;4982816;28;20038;-82
2021/01/13 01:38:27;;;;;;;23.05;9.77;;;-2.30;99.90;;;;;;5003052;28;20022;-82
2021/01/13 01:41:08;;;;;;;17.30;9.35;;;-2.40;99.90;;;;;;5004723;28;20033;-81
2021/01/13 01:43:35;;;;;;;16.83;6.13;;;-2.40;99.90;;;;;;5012512;28;20033;-82
2021/01/13 01:46:02;;;;;;;23.10;8.40;;;-2.40;99.90;;;;;;4983721;28;20054;-81
2021/01/13 01:48:33;;;;;;;22.17;8.80;;;-2.50;99.90;;;;;;5001735;28;20038;-81
2021/01/13 01:51:01;;;;;;;17.67;6.95;;;-2.50;99.90;;;;;;5012924;28;20038;-81
2021/01/13 01:53:38;;;;;;;16.63;8.48;;;-2.50;99.90;;;;;;5020642;28;20033;-81
2021/01/13 01:56:22;;;;;;;16.40;8.40;;;-2.50;99.90;;;;;;5009865;28;20035;-81
2021/01/13 01:58:59;;;;;;;16.48;6.97;;;-2.40;99.90;;;;;;5000905;28;20038;-82
2021/01/13 02:01:33;;;;;;;16.05;7.65;;;-2.50;99.90;;;;;;5021522;28;20037;-81
2021/01/13 02:04:06;;;;;;;16.77;7.05;;;-2.60;99.90;;;;;;5011173;28;20038;-81
2021/01/13 02:06:40;;;;;;;19.73;6.97;;;-2.60;99.90;;;;;;5014107;28;20041;-81
2021/01/13 02:09:07;;;;;;;17.58;7.68;;;-2.70;99.90;;;;;;5003182;28;20034;-81
2021/01/13 02:11:37;;;;;;;13.45;7.13;;;-2.70;99.90;;;;;;5013748;28;20383;-80
2021/01/13 02:14:03;;;;;;;37.40;14.60;;;-2.70;99.90;;;;;;4996050;28;20046;-81
2021/01/13 02:16:31;;;;;;;36.00;15.32;;;-2.70;99.90;;;;;;5002262;28;20476;-81
2021/01/13 02:19:00;;;;;;;34.28;15.07;;;-2.70;99.90;;;;;;4994951;28;20030;-81
2021/01/13 02:21:31;;;;;;;25.65;12.02;;;-2.60;99.90;;;;;;4993319;28;20042;-81
2021/01/13 02:24:09;;;;;;;28.77;13.98;;;-2.60;99.90;;;;;;5017802;28;20034;-81
2021/01/13 02:26:51;;;;;;;23.88;11.50;;;-2.60;99.90;;;;;;5001051;28;20051;-81
2021/01/13 02:29:59;;;;;;;18.98;10.55;;;-2.60;99.90;;;;;;4986077;28;20042;-81
2021/01/13 02:32:32;;;;;;;32.97;14.48;;;-2.60;99.90;;;;;;4983816;28;20038;-81
2021/01/13 02:35:27;;;;;;;32.78;14.32;;;-2.60;99.90;;;;;;4984068;28;20034;-81
2021/01/13 02:38:07;;;;;;;31.92;12.65;;;-2.60;99.90;;;;;;4997204;28;20030;-81
2021/01/13 02:40:34;;;;;;;29.70;12.82;;;-2.60;99.90;;;;;;4997163;28;20375;-81
2021/01/13 02:43:11;;;;;;;105.78;34.72;;;-2.70;99.90;;;;;;4995903;28;20476;-81
2021/01/13 02:45:59;;;;;;;234.60;75.07;;;-2.80;99.90;;;;;;4996499;28;20038;-81
2021/01/13 02:48:32;;;;;;;113.03;40.50;;;-2.80;99.90;;;;;;4996188;28;20041;-81
2021/01/13 02:51:00;;;;;;;198.77;63.08;;;-2.80;99.90;;;;;;4995622;28;20030;-81
2021/01/13 02:53:30;;;;;;;160.30;49.33;;;-2.90;99.90;;;;;;4978993;28;20035;-80
2021/01/13 02:55:56;;;;;;;99.68;34.05;;;-3.00;99.90;;;;;;4993931;28;20046;-81
2021/01/13 02:58:26;;;;;;;37.08;18.08;;;-3.00;99.90;;;;;;4995587;28;20491;-81
2021/01/13 03:00:54;;;;;;;36.08;15.45;;;-3.10;99.90;;;;;;4978550;28;20031;-81
2021/01/13 03:03:21;;;;;;;32.55;12.85;;;-3.10;99.90;;;;;;4995026;28;20054;-81
2021/01/13 03:05:47;;;;;;;45.00;17.25;;;-3.20;99.90;;;;;;4999332;28;20406;-81
2021/01/13 03:08:15;;;;;;;34.42;13.68;;;-3.20;99.90;;;;;;4978845;28;20507;-81
2021/01/13 03:10:45;;;;;;;47.75;17.92;;;-3.20;99.90;;;;;;4995654;28;20384;-80
2021/01/13 03:13:12;;;;;;;45.00;19.98;;;-3.30;99.90;;;;;;4995364;28;20496;-80
2021/01/13 03:15:39;;;;;;;90.13;34.22;;;-3.30;99.90;;;;;;4978556;28;20042;-80
2021/01/13 03:18:31;;;;;;;69.10;28.95;;;-3.40;99.90;;;;;;4996767;28;20375;-81
2021/01/13 03:21:12;;;;;;;65.32;25.25;;;-3.40;99.90;;;;;;5014937;28;20045;-81
2021/01/13 03:23:49;;;;;;;46.93;18.10;;;-3.30;99.90;;;;;;4996032;28;20053;-81
2021/01/13 03:26:26;;;;;;;56.25;22.73;;;-3.20;99.90;;;;;;4995120;28;20399;-80
2021/01/13 03:28:54;;;;;;;79.35;30.67;;;-3.20;99.90;;;;;;4995688;28;20042;-81
2021/01/13 03:31:30;;;;;;;76.47;32.25;;;-3.20;99.90;;;;;;4979272;28;20049;-81
2021/01/13 03:34:15;;;;;;;53.20;24.33;;;-3.30;99.90;;;;;;4997288;28;20030;-81
2021/01/13 03:36:58;;;;;;;45.45;20.08;;;-3.30;99.90;;;;;;4995158;28;20046;-80
2021/01/13 03:39:31;;;;;;;31.02;14.30;;;-3.40;99.90;;;;;;4988121;28;20037;-81
2021/01/13 03:42:08;;;;;;;18.60;10.07;;;-3.40;99.90;;;;;;4989185;28;20035;-81
2021/01/13 03:44:36;;;;;;;19.98;9.93;;;-3.50;99.90;;;;;;4981496;28;20034;-81
2021/01/13 03:47:50;;;;;;;18.95;8.73;;;-3.40;99.90;;;;;;4994180;28;20046;-81
2021/01/13 03:50:24;;;;;;;19.35;6.93;;;-3.30;99.90;;;;;;4970867;28;20046;-81
2021/01/13 03:53:20;;;;;;;81.63;33.03;;;-3.30;99.90;;;;;;4994402;28;20026;-81
2021/01/13 03:55:49;;;;;;;58.28;26.17;;;-3.30;99.90;;;;;;4980968;28;20046;-81
2021/01/13 03:58:48;;;;;;;21.25;9.35;;;-3.40;99.90;;;;;;4993116;28;20041;-82
2021/01/13 04:01:24;;;;;;;39.95;13.95;;;-3.40;99.90;;;;;;4993893;28;20029;-81
2021/01/13 04:04:08;;;;;;;26.02;10.25;;;-3.40;99.90;;;;;;5003412;28;20038;-81
2021/01/13 04:06:42;;;;;;;21.90;8.85;;;-3.30;99.90;;;;;;4995897;28;20399;-81
2021/01/13 04:09:14;;;;;;;15.60;7.38;;;-3.30;99.90;;;;;;4994256;28;20045;-82
2021/01/13 04:11:44;;;;;;;19.60;7.85;;;-3.40;99.90;;;;;;4976850;28;20057;-81
2021/01/13 04:14:13;;;;;;;21.23;8.88;;;-3.40;99.90;;;;;;4993908;28;20472;-82
2021/01/13 04:16:40;;;;;;;18.42;7.68;;;-3.50;99.90;;;;;;4994358;28;20057;-82
2021/01/13 04:19:06;;;;;;;21.60;9.15;;;-3.60;99.90;;;;;;4993323;28;20039;-81
2021/01/13 04:21:33;;;;;;;18.42;7.30;;;-3.70;99.90;;;;;;4993784;28;20030;-82
2021/01/13 04:24:01;;;;;;;18.15;7.30;;;-3.70;99.90;;;;;;4992603;28;20041;-82
2021/01/13 04:26:28;;;;;;;19.83;7.20;;;-3.70;99.90;;;;;;4977162;28;20053;-82
2021/01/13 04:28:55;;;;;;;22.85;7.47;;;-3.80;99.90;;;;;;4994675;28;20031;-82
2021/01/13 04:31:23;;;;;;;18.00;7.97;;;-3.70;99.90;;;;;;4982192;28;20478;-82
2021/01/13 04:33:50;;;;;;;16.95;7.65;;;-3.80;99.90;;;;;;5017775;28;20045;-82
2021/01/13 04:36:18;;;;;;;20.38;8.00;;;-3.80;99.90;;;;;;4999038;28;20041;-82
2021/01/13 04:38:44;;;;;;;14.15;7.43;;;-3.80;99.90;;;;;;4995117;28;20026;-82
2021/01/13 04:41:13;;;;;;;24.80;8.45;;;-3.70;99.90;;;;;;4992511;28;20027;-82
2021/01/13 04:44:00;;;;;;;17.27;7.85;;;-3.60;99.90;;;;;;4993981;28;20037;-82
2021/01/13 04:46:28;;;;;;;17.02;7.53;;;-3.50;99.90;;;;;;4997210;28;20038;-82
2021/01/13 04:49:10;;;;;;;24.58;11.15;;;-3.60;99.90;;;;;;4992219;28;20034;-83
2021/01/13 04:51:42;;;;;;;21.48;8.70;;;-3.50;99.90;;;;;;4994112;28;20053;-83
2021/01/13 04:54:12;;;;;;;;;;;-3.50;99.90;;;;;;4988744;28;20033;-81
2021/01/13 04:57:11;;;;;;;21.70;7.90;;;-3.50;99.90;;;;;;5026556;28;19897;-83
2021/01/13 04:59:58;;;;;;;21.25;9.50;;;-3.40;99.90;;;;;;4977526;28;20054;-83
2021/01/13 05:03:08;;;;;;;19.63;9.60;;;-3.50;99.90;;;;;;4983883;28;20038;-82
2021/01/13 05:05:48;;;;;;;20.77;8.63;;;-3.50;99.90;;;;;;4964833;28;20046;-83
2021/01/13 05:08:25;;;;;;;21.40;9.20;;;-3.40;99.90;;;;;;4993899;28;20034;-83
2021/01/13 05:11:08;;;;;;;20.45;8.73;;;-3.40;99.90;;;;;;4993512;28;20045;-83
2021/01/13 05:13:35;;;;;;;28.63;10.02;;;-3.30;99.90;;;;;;4992287;28;20034;-83
2021/01/13 05:16:10;;;;;;;22.80;9.52;;;-3.20;99.90;;;;;;4992438;28;20506;-83
2021/01/13 05:18:54;;;;;;;23.63;10.02;;;-3.20;99.90;;;;;;4992871;28;20041;-84
2021/01/13 05:21:25;;;;;;;22.88;9.88;;;-3.20;99.90;;;;;;4990973;28;20285;-84
2021/01/13 05:23:56;;;;;;;15.77;8.35;;;-3.10;99.90;;;;;;4993622;28;20030;-84
2021/01/13 05:26:26;;;;;;;23.63;11.05;;;-3.10;99.90;;;;;;5002057;28;20042;-84
2021/01/13 05:29:05;;;;;;;22.40;9.52;;;-3.10;99.90;;;;;;4993942;28;20246;-84
2021/01/13 05:31:37;;;;;;;25.17;9.85;;;-3.20;99.90;;;;;;4993718;28;20037;-83
2021/01/13 05:34:04;;;;;;;28.33;9.25;;;-3.20;99.90;;;;;;4991167;28;20519;-83
2021/01/13 05:36:32;;;;;;;29.10;11.02;;;-3.10;99.90;;;;;;4995046;28;20407;-84
2021/01/13 05:39:10;;;;;;;27.95;10.20;;;-3.00;99.90;;;;;;4997558;28;20030;-83
2021/01/13 05:41:41;;;;;;;21.05;10.38;;;-2.90;99.90;;;;;;4975693;28;20094;-85
2021/01/13 05:44:09;;;;;;;20.23;9.73;;;-2.90;99.90;;;;;;4993007;28;20392;-83
2021/01/13 05:46:43;;;;;;;25.25;9.68;;;-2.80;99.90;;;;;;4976164;28;20057;-84
2021/01/13 05:49:10;;;;;;;20.20;9.45;;;-2.80;99.90;;;;;;4998893;28;20045;-83
2021/01/13 05:51:37;;;;;;;28.95;10.93;;;-2.90;99.90;;;;;;4980645;28;20048;-83
2021/01/13 05:54:04;;;;;;;24.20;9.40;;;-3.00;99.90;;;;;;4997044;28;20034;-83
2021/01/13 05:56:37;;;;;;;25.50;11.85;;;-3.00;99.90;;;;;;4985670;28;20411;-83
2021/01/13 05:59:09;;;;;;;26.08;11.63;;;-3.10;99.90;;;;;;5001168;28;20035;-84
2021/01/13 06:01:58;;;;;;;31.67;17.27;;;-3.20;99.90;;;;;;4994323;28;20053;-83
2021/01/13 06:04:26;;;;;;;36.47;17.85;;;-3.10;99.90;;;;;;4974765;28;20049;-84
2021/01/13 06:07:18;;;;;;;33.78;17.95;;;-3.20;99.90;;;;;;4993260;28;20046;-84
2021/01/13 06:09:44;;;;;;;;;;;-3.20;99.90;;;;;;5003095;28;20045;-85
2021/01/13 06:12:18;;;;;;;20.95;8.82;;;-3.30;99.90;;;;;;4993021;28;19921;-84
2021/01/13 06:14:49;;;;;;;23.95;9.93;;;-3.30;99.90;;;;;;4993148;28;20037;-85
2021/01/13 06:17:23;;;;;;;21.80;9.30;;;-3.20;99.90;;;;;;4992902;28;20042;-84
2021/01/13 06:19:50;;;;;;;16.45;8.45;;;-3.20;99.90;;;;;;4993032;28;20043;-85
2021/01/13 06:22:17;;;;;;;30.17;12.32;;;-3.10;99.90;;;;;;4994369;28;20030;-85
2021/01/13 06:24:46;;;;;;;37.03;10.93;;;-3.00;99.90;;;;;;4978837;28;20419;-79
2021/01/13 06:27:20;;;;;;;22.98;9.63;;;-3.00;99.90;;;;;;4998108;28;20050;-78
2021/01/13 06:29:51;;;;;;;23.77;9.77;;;-3.20;99.90;;;;;;4995992;28;20030;-78
2021/01/13 06:32:19;;;;;;;22.35;9.93;;;-3.20;99.90;;;;;;4992197;28;20038;-79
2021/01/13 06:35:17;;;;;;;20.00;9.15;;;-3.30;99.90;;;;;;5002903;28;20478;-78
2021/01/13 06:37:48;;;;;;;20.48;10.43;;;-3.30;99.90;;;;;;4956824;28;20102;-78
2021/01/13 06:40:17;;;;;;;22.33;11.05;;;-3.40;99.90;;;;;;4995663;28;20030;-78
2021/01/13 06:42:44;;;;;;;19.58;10.57;;;-3.50;99.90;;;;;;4995228;28;20037;-79
2021/01/13 06:45:12;;;;;;;29.13;11.57;;;-3.60;99.90;;;;;;4994363;28;20038;-77
2021/01/13 06:48:05;;;;;;;17.80;9.95;;;-3.60;99.90;;;;;;4984098;28;20034;-79
2021/01/13 06:50:39;;;;;;;24.30;10.38;;;-3.60;99.90;;;;;;4988623;28;20042;-78
2021/01/13 06:53:10;;;;;;;26.58;12.50;;;-3.30;99.90;;;;;;4993970;28;20039;-78
2021/01/13 06:55:38;;;;;;;35.58;14.68;;;-3.10;99.90;;;;;;4977642;28;20057;-78
2021/01/13 06:58:11;;;;;;;36.78;17.25;;;-3.00;99.90;;;;;;4995241;28;20030;-77
2021/01/13 07:00:37;;;;;;;30.75;14.75;;;-3.00;99.90;;;;;;4996388;28;20042;-81
2021/01/13 07:03:30;;;;;;;34.28;13.93;;;-3.10;99.90;;;;;;4996769;28;20464;-80
2021/01/13 07:06:00;;;;;;;25.45;12.93;;;-3.00;99.90;;;;;;4995817;28;20034;-80
2021/01/13 07:08:27;;;;;;;38.72;14.18;;;-2.90;99.90;;;;;;4995153;28;20388;-81
2021/01/13 07:11:10;;;;;;;35.35;15.95;;;-2.70;99.90;;;;;;4995508;28;20037;-80
2021/01/13 07:13:41;;;;;;;27.80;13.35;;;-2.70;99.90;;;;;;4995436;28;20069;-80
2021/01/13 07:16:08;;;;;;;39.35;17.13;;;-2.50;99.90;;;;;;4994769;28;20041;-80
2021/01/13 07:18:36;;;;;;;64.32;26.95;;;-2.30;99.90;;;;;;4995306;28;20034;-80
2021/01/13 07:21:09;;;;;;;46.40;21.50;;;-2.30;99.90;;;;;;4995440;28;20030;-81
2021/01/13 07:23:39;;;;;;;37.28;18.33;;;-2.30;99.90;;;;;;4995075;28;20038;-84
2021/01/13 07:26:06;;;;;;;37.92;20.42;;;-2.20;99.90;;;;;;5002889;28;20415;-79
2021/01/13 07:28:36;;;;;;;38.35;18.25;;;-2.20;99.90;;;;;;4995659;28;20046;-80
2021/01/13 07:31:04;;;;;;;39.72;18.52;;;-2.30;99.90;;;;;;4995610;28;20042;-79
2021/01/13 07:33:36;;;;;;;34.35;16.60;;;-2.30;99.90;;;;;;4980146;28;20450;-76
2021/01/13 07:36:04;;;;;;;32.15;15.63;;;-2.30;99.90;;;;;;4994448;28;20102;-76
2021/01/13 07:38:33;;;;;;;31.13;15.45;;;-2.30;99.90;;;;;;4987250;28;20484;-75
2021/01/13 07:41:07;;;;;;;36.53;16.50;;;-2.30;99.90;;;;;;4977624;28;20049;-75
2021/01/13 07:43:58;;;;;;;34.70;15.80;;;-2.20;99.90;;;;;;4994370;28;20387;-75
2021/01/13 07:46:28;;;;;;;32.47;15.00;;;-2.20;99.90;;;;;;4993940;28;20415;-76
2021/01/13 07:49:03;;;;;;;40.22;15.75;;;-2.10;99.90;;;;;;4981639;28;20049;-76
2021/01/13 07:51:42;;;;;;;30.23;14.55;;;-2.10;99.90;;;;;;5007710;28;20037;-76
2021/01/13 07:54:17;;;;;;;35.58;16.38;;;-2.00;99.90;;;;;;4993927;28;20042;-76
2021/01/13 07:56:49;;;;;;;34.35;15.73;;;-1.90;99.90;;;;;;4987433;28;20496;-76
2021/01/13 07:59:38;;;;;;;34.50;16.15;;;-1.90;99.90;;;;;;4993363;28;20400;-76
2021/01/13 08:02:42;;;;;;;32.80;15.65;;;-1.80;99.90;;;;;;4976953;28;20114;-76
2021/01/13 08:05:43;;;;;;;31.17;16.27;;;-1.70;99.90;;;;;;4976569;28;20042;-76
2021/01/13 08:08:11;;;;;;;30.98;15.77;;;-1.60;99.90;;;;;;4962961;28;20408;-76
2021/01/13 08:10:41;;;;;;;31.08;17.00;;;-1.50;99.90;;;;;;4994734;28;20038;-76
2021/01/13 08:13:36;;;;;;;33.28;15.82;;;-1.40;99.90;;;;;;4993228;28;20496;-75
2021/01/13 08:16:24;;;;;;;62.75;30.17;;;-1.30;99.90;;;;;;4994342;28;20471;-76
2021/01/13 08:19:25;;;;;;;32.75;17.10;;;-1.20;99.90;;;;;;4977053;28;20038;-76
2021/01/13 08:22:00;;;;;;;31.20;15.38;;;-1.00;99.90;;;;;;4994224;28;20037;-75
2021/01/13 08:24:43;;;;;;;26.88;16.95;;;-0.90;99.90;;;;;;4978429;28;20030;-76
2021/01/13 08:27:10;;;;;;;27.25;15.15;;;-0.70;99.90;;;;;;5010183;28;20057;-76
2021/01/13 08:29:39;;;;;;;41.90;23.20;;;-0.60;99.90;;;;;;5012454;28;20467;-75
2021/01/13 08:32:12;;;;;;;32.58;19.25;;;-0.50;99.90;;;;;;4999221;28;20042;-75
2021/01/13 08:34:39;;;;;;;31.38;17.50;;;-0.40;99.90;;;;;;4993882;28;20031;-76
2021/01/13 08:37:07;;;;;;;32.85;19.98;;;-0.30;99.90;;;;;;4994312;28;20037;-77
2021/01/13 08:39:35;;;;;;;37.78;19.13;;;-0.20;99.90;;;;;;5009269;28;20033;-75
2021/01/13 08:42:25;;;;;;;41.25;21.67;;;-0.20;99.90;;;;;;4994280;28;20034;-75
2021/01/13 08:44:56;;;;;;;37.80;22.35;;;-0.10;99.90;;;;;;4993799;28;20042;-75
2021/01/13 08:47:24;;;;;;;34.05;21.23;;;-0.10;99.90;;;;;;4993623;28;20026;-76
2021/01/13 08:49:52;;;;;;;36.47;22.63;;;-0.10;99.90;;;;;;4976228;28;20030;-76
2021/01/13 08:52:22;;;;;;;32.97;20.40;;;-0.10;99.90;;;;;;4991481;28;20054;-77
2021/01/13 08:54:48;;;;;;;33.08;21.45;;;-0.10;99.90;;;;;;4977154;28;20042;-76
2021/01/13 08:57:16;;;;;;;39.38;17.80;;;-0.10;99.90;;;;;;4977224;28;20030;-77
2021/01/13 08:59:44;;;;;;;25.38;16.85;;;-0.10;99.90;;;;;;4999699;28;20041;-77
2021/01/13 09:02:17;;;;;;;26.10;12.95;;;0.00;99.90;;;;;;4992273;28;20031;-77
2021/01/13 09:04:53;;;;;;;23.48;13.75;;;0.20;99.90;;;;;;4989808;28;20054;-77
2021/01/13 09:07:28;;;;;;;27.65;13.68;;;0.30;99.90;;;;;;4992539;28;20388;-77
2021/01/13 09:09:55;;;;;;;26.13;13.23;;;0.40;99.90;;;;;;4977726;28;20047;-76
2021/01/13 09:12:38;;;;;;;26.08;14.55;;;0.40;99.90;;;;;;4992613;28;20499;-76
2021/01/13 09:15:07;;;;;;;29.50;13.98;;;0.40;99.90;;;;;;4993031;28;20396;-76
2021/01/13 09:17:55;;;;;;;26.65;13.43;;;0.50;99.90;;;;;;4977045;28;20053;-76
2021/01/13 09:20:30;;;;;;;20.35;10.48;;;0.60;99.90;;;;;;4963425;28;20526;-76
2021/01/13 09:22:56;;;;;;;18.33;10.73;;;0.70;99.90;;;;;;4983981;28;20392;-76
2021/01/13 09:25:27;;;;;;;25.23;11.60;;;0.80;99.90;;;;;;4996521;28;20479;-76
2021/01/13 09:27:55;;;;;;;24.98;12.05;;;0.90;99.90;;;;;;4992317;28;20061;-76
2021/01/13 09:30:25;;;;;;;27.60;10.13;;;1.00;99.90;;;;;;4992617;28;20396;-76
2021/01/13 09:32:52;;;;;;;13.52;8.18;;;1.10;99.90;;;;;;4992724;28;20045;-76
2021/01/13 09:35:24;;;;;;;18.95;8.60;;;1.20;99.90;;;;;;4992127;28;20388;-76
2021/01/13 09:37:54;;;;;;;17.13;8.18;;;1.30;99.90;;;;;;4980822;28;20042;-76
2021/01/13 09:40:21;;;;;;;16.02;6.85;;;1.40;99.90;;;;;;4975254;28;20419;-76
2021/01/13 09:42:56;;;;;;;16.13;8.50;;;1.50;99.90;;;;;;4992432;28;20030;-76
2021/01/13 09:45:36;;;;;;;17.75;7.68;;;1.50;99.90;;;;;;4991914;28;20042;-76
2021/01/13 09:48:16;;;;;;;14.52;6.75;;;1.50;99.90;;;;;;4992504;28;20050;-76
2021/01/13 09:50:43;;;;;;;17.17;7.93;;;1.60;99.90;;;;;;4992295;28;20049;-76
2021/01/13 09:53:13;;;;;;;15.88;7.90;;;1.60;99.90;;;;;;4991650;28;20495;-77
2021/01/13 09:55:40;;;;;;;18.52;8.32;;;1.70;99.90;;;;;;4992602;28;20047;-76
2021/01/13 09:58:17;;;;;;;14.68;7.90;;;1.70;99.90;;;;;;4995297;28;20468;-76
2021/01/13 10:00:43;;;;;;;12.60;7.10;;;1.90;99.90;;;;;;4978462;28;20038;-76
2021/01/13 10:03:13;;;;;;;19.48;7.80;;;1.90;99.90;;;;;;4995726;28;20037;-76
2021/01/13 10:05:39;;;;;;;21.45;9.75;;;1.90;99.90;;;;;;4995795;28;20034;-76
2021/01/13 10:08:06;;;;;;;17.27;9.80;;;2.00;99.90;;;;;;4994239;28;20062;-77
2021/01/13 10:10:33;;;;;;;16.38;8.50;;;2.10;99.90;;;;;;4995583;28;20026;-76
2021/01/13 10:13:00;;;;;;;17.67;9.38;;;2.20;99.90;;;;;;4995803;28;20041;-76
2021/01/13 10:15:28;;;;;;;14.68;7.93;;;2.20;99.90;;;;;;4994748;28;20038;-77
2021/01/13 10:18:00;;;;;;;20.30;8.80;;;2.30;99.90;;;;;;4978655;28;20486;-77
2021/01/13 10:20:27;;;;;;;18.02;8.82;;;2.30;99.90;;;;;;4977524;28;20391;-77
2021/01/13 10:22:54;;;;;;;14.32;8.43;;;2.50;99.90;;;;;;4995829;28;20415;-77
2021/01/13 10:25:33;;;;;;;17.42;9.05;;;2.50;99.90;;;;;;4977988;28;20379;-77
2021/01/13 10:28:01;;;;;;;19.52;9.40;;;2.60;99.90;;;;;;4992989;28;20053;-77
2021/01/13 10:30:28;;;;;;;22.88;9.02;;;2.70;99.90;;;;;;4995377;28;20039;-77
2021/01/13 10:32:56;;;;;;;19.70;9.32;;;2.90;99.90;;;;;;4995748;28;20380;-77
2021/01/13 10:35:35;;;;;;;20.70;8.48;;;3.10;99.90;;;;;;4984936;28;20037;-77
2021/01/13 10:38:02;;;;;;;16.65;7.07;;;3.40;99.90;;;;;;4995685;28;20034;-76
2021/01/13 10:40:28;;;;;;;11.68;6.50;;;3.60;99.90;;;;;;4994839;28;20031;-74
2021/01/13 10:42:55;;;;;;;10.88;7.50;;;3.70;99.90;;;;;;4995596;28;20030;-74
2021/01/13 10:45:23;;;;;;;16.88;8.48;;;3.80;99.90;;;;;;4995118;28;20392;-74
2021/01/13 10:48:01;;;;;;;15.52;7.38;;;3.90;99.90;;;;;;4995240;28;20065;-75
2021/01/13 10:50:32;;;;;;;16.05;8.93;;;4.00;99.90;;;;;;4994161;28;20087;-74
2021/01/13 10:53:00;;;;;;;12.10;6.85;;;4.40;99.90;;;;;;4994945;28;20041;-75
2021/01/13 10:55:28;;;;;;;9.13;4.85;;;4.60;99.90;;;;;;5013889;28;20053;-74
2021/01/13 10:57:56;;;;;;;8.32;4.65;;;4.70;99.90;;;;;;4997466;28;20049;-76
2021/01/13 11:00:25;;;;;;;10.48;4.15;;;4.70;99.90;;;;;;4994866;28;20057;-75
2021/01/13 11:02:53;;;;;;;12.32;4.88;;;4.50;99.90;;;;;;4977069;28;20053;-75
2021/01/13 11:05:20;;;;;;;9.98;4.65;;;4.30;99.90;;;;;;4991297;28;20041;-74
2021/01/13 11:07:53;;;;;;;10.27;4.00;;;4.30;99.90;;;;;;4994970;28;20038;-74
2021/01/13 11:10:21;;;;;;;8.60;3.92;;;4.30;99.90;;;;;;4994488;28;20038;-74
2021/01/13 11:13:08;;;;;;;9.55;4.10;;;4.20;99.90;;;;;;4962155;28;20388;-73
2021/01/13 11:15:35;;;;;;;7.57;3.67;;;4.10;99.90;;;;;;4993697;28;20038;-74
2021/01/13 11:18:07;;;;;;;8.38;3.30;;;4.00;99.90;;;;;;4997145;28;20035;-73
2021/01/13 11:20:34;;;;;;;9.30;4.78;;;4.00;99.90;;;;;;4993100;28;20030;-75
2021/01/13 11:23:05;;;;;;;19.08;6.22;;;4.00;99.90;;;;;;4994575;28;20041;-73
2021/01/13 11:25:37;;;;;;;8.93;4.65;;;4.00;99.90;;;;;;4994199;28;20042;-73
2021/01/13 11:28:03;;;;;;;;;;;4.20;99.90;;;;;;4993776;28;20476;-73
2021/01/13 11:30:31;;;;;;;9.90;3.92;;;4.10;99.90;;;;;;4994312;28;20379;-74
2021/01/13 11:32:59;;;;;;;11.65;4.38;;;4.10;99.90;;;;;;4994568;28;20038;-74
2021/01/13 11:35:30;;;;;;;10.57;3.95;;;4.10;99.90;;;;;;4993840;28;20034;-74
2021/01/13 11:38:22;;;;;;;7.90;2.78;;;4.10;99.90;;;;;;4994076;28;20476;-74
2021/01/13 11:41:10;;;;;;;14.15;3.58;;;4.10;99.90;;;;;;4957884;28;20049;-74
2021/01/13 11:43:48;;;;;;;6.22;2.67;;;4.20;99.90;;;;;;4976600;28;20043;-74
2021/01/13 11:46:33;;;;;;;5.15;2.45;;;4.10;99.90;;;;;;4993815;28;20045;-75
2021/01/13 11:49:36;;;;;;;7.13;2.67;;;4.20;99.90;;;;;;4994364;28;20039;-73
2021/01/13 11:52:07;;;;;;;6.05;2.65;;;4.10;99.90;;;;;;4981014;28;20050;-74
2021/01/13 11:54:34;;;;;;;8.00;2.75;;;4.10;99.90;;;;;;4994170;28;20049;-73
2021/01/13 11:57:36;;;;;;;7.38;2.55;;;4.10;99.90;;;;;;4995577;28;20425;-74
2021/01/13 12:00:15;;;;;;;9.85;3.25;;;4.20;99.90;;;;;;4976653;28;20038;-73
2021/01/13 12:02:50;;;;;;;9.32;3.45;;;4.40;99.90;;;;;;4994021;28;20049;-74
2021/01/13 12:05:37;;;;;;;5.85;3.28;;;4.50;99.90;;;;;;5001738;28;20046;-74
2021/01/13 12:08:05;;;;;;;12.32;5.93;;;4.50;99.90;;;;;;4994204;28;20329;-73
2021/01/13 12:10:39;;;;;;;12.80;6.25;;;4.40;99.90;;;;;;4994604;28;20399;-73
2021/01/13 12:13:21;;;;;;;15.82;6.55;;;4.30;99.90;;;;;;4993520;28;20492;-73
2021/01/13 12:16:04;;;;;;;37.42;21.38;;;4.30;99.90;;;;;;4978847;28;20030;-74
2021/01/13 12:18:33;;;;;;;105.13;56.95;;;4.30;99.90;;;;;;4994026;28;20034;-74
2021/01/13 12:21:22;;;;;;;67.22;33.90;;;4.40;99.90;;;;;;4997535;28;20030;-74
2021/01/13 12:23:51;;;;;;;42.40;29.92;;;4.40;99.90;;;;;;4975598;28;20400;-74
2021/01/13 12:26:21;;;;;;;27.35;17.77;;;4.40;99.90;;;;;;4975208;28;20483;-75
2021/01/13 12:28:50;;;;;;;68.97;45.40;;;4.40;99.90;;;;;;5000112;28;20054;-74
2021/01/13 12:31:19;;;;;;;26.25;19.40;;;4.30;99.90;;;;;;5004295;28;20031;-74
2021/01/13 12:33:55;;;;;;;12.52;9.00;;;4.30;99.90;;;;;;5006500;28;20033;-75
2021/01/13 12:36:36;;;;;;;6.32;2.90;;;4.30;99.90;;;;;;4993803;28;20035;-74
2021/01/13 12:39:04;;;;;;;5.93;2.72;;;4.30;99.90;;;;;;4993886;28;20030;-75
2021/01/13 12:41:36;;;;;;;11.13;4.15;;;4.30;99.90;;;;;;4993247;28;20031;-75
2021/01/13 12:44:08;;;;;;;37.63;16.50;;;4.40;99.90;;;;;;4993957;28;20502;-74
2021/01/13 12:46:35;;;;;;;;;;;4.50;99.90;;;;;;4997191;28;20049;-74
2021/01/13 12:49:04;;;;;;;33.15;11.60;;;4.60;99.90;;;;;;5000406;28;19964;-74
2021/01/13 12:51:31;;;;;;;11.00;5.30;;;4.50;99.90;;;;;;4993733;28;20460;-74
2021/01/13 12:53:58;;;;;;;12.95;4.32;;;4.50;99.90;;;;;;4993111;28;20034;-74
2021/01/13 12:56:36;;;;;;;29.10;12.00;;;4.40;99.90;;;;;;4997896;28;20034;-75
2021/01/13 12:59:03;;;;;;;21.50;12.45;;;4.40;99.90;;;;;;4991366;28;20468;-75
2021/01/13 13:01:37;;;;;;;23.23;10.68;;;4.40;99.90;;;;;;4992709;28;20045;-75
2021/01/13 13:04:04;;;;;;;5.15;2.65;;;4.50;99.90;;;;;;4993135;28;20042;-75